Neidpath, Canada
Current Conditions -  °F | °C
As of 12:00 PM on Friday 21 Nov 2014 (Local Time) from CYYN Reporting Station
Broken Clouds Broken Clouds  
Wind Chill: 28°   Ceiling: 7500
Heat Index: 37°   Visibility: 9mi
Dew Point: 28°   Wind: 17mph
Humidity: 70%   Direction: 250°WSW
Pressure: 29.57"   Gusts: 23mph
Location:  50.23°N, 107.25°W
Report Text: CYYN 211800Z AUTO 25015G20KT 9SM BKN075 03/M02 A2957 RMK SLP038
Loading
Personal Weather Stations






























Interactive Weather Map New forecast layout! Learn more

10-Day Weather Forecast

Advertisements
Track Severe Weather on mobile